Terminal Aerodrome Forecast
Issued by NWS

Home | Current Version | Previous Version | Text Only | Print | Product List | Glossary Off
Versions: 1 2 3 4 5 6 7 8 9 10 11 12 13 14 15 16 17 18 19 20 21 22 23 24 25 26 27 28 29 30 31

000
FTUS43 KLOT 010522
TAFDPA
TAF
KDPA 010522Z 0106/0206 04005KT P6SM FEW015 SCT030 BKN045
     FM011000 02005KT P6SM SCT015 BKN200
     FM011900 05010KT P6SM FEW025 BKN200
     FM020100 03005KT P6SM BKN180=

USA.gov is the U.S. government's official web portal to all federal, state and local government web resources and services.